Amsterdam, New York
Current Conditions -  °F | °C
As of 11:55 AM on Thursday 23 Oct 2014 (Local Time) from KNY0 Reporting Station
Overcast Overcast  
Wind Chill:   Ceiling: 1400
Heat Index:   Visibility: 4mi
Dew Point:   Wind: 3mph
Humidity: 98%   Direction: 270°W
Pressure: 29.87"   Gusts: NA
Location:  42.94°N, 74.19°W
Report Text: KNY0 231555Z AUTO 27003KT 4SM SCT001 SCT006 OVC014 07/07 A2987 RMK AO2 P0010 T00710068
Loading
Personal Weather Stations






























Interactive Weather Map
Tropical Storm Tracking
New forecast layout! Learn more

10-Day Weather Forecast

Advertisements
Track Severe Weather on mobile